createdAt,value
2019-01-27T00:00:00.980Z,97473.89
2019-01-27T00:05:08.443Z,97478.92
2019-01-27T00:10:14.912Z,97473.00
2019-01-27T00:15:20.721Z,97449.75
2019-01-27T00:20:26.329Z,97449.23
2019-01-27T00:25:33.430Z,97446.29
2019-01-27T00:30:39.026Z,97443.77
2019-01-27T00:35:44.643Z,97446.34
2019-01-27T00:40:50.931Z,97438.88
2019-01-27T00:45:56.605Z,97436.88
2019-01-27T00:51:02.620Z,97421.80
2019-01-27T00:56:09.946Z,97412.94
2019-01-27T01:01:17.992Z,97400.48
2019-01-27T01:06:23.865Z,97401.44
2019-01-27T01:11:29.901Z,97390.52
2019-01-27T01:16:35.541Z,97383.34
2019-01-27T01:21:41.187Z,97378.11
2019-01-27T01:26:46.737Z,97375.42
2019-01-27T01:31:52.323Z,97364.84
2019-01-27T01:36:57.897Z,97359.39
2019-01-27T01:42:03.563Z,97353.41
2019-01-27T01:47:09.202Z,97332.91
2019-01-27T01:52:14.824Z,97332.91
2019-01-27T01:57:21.398Z,97319.13
2019-01-27T02:02:28.233Z,97311.00
2019-01-27T02:07:34.904Z,97295.82
2019-01-27T02:12:40.920Z,97289.65
2019-01-27T02:18:27.329Z,97279.80
2019-01-27T02:24:01.850Z,97267.32
2019-01-27T02:29:07.651Z,97251.94
2019-01-27T02:34:13.219Z,97231.97
2019-01-27T02:39:19.841Z,97221.04
2019-01-27T02:44:25.623Z,97212.12
2019-01-27T02:49:31.591Z,97196.33
2019-01-27T02:54:37.249Z,97183.94
2019-01-27T02:59:42.771Z,97177.28
2019-01-27T03:04:48.321Z,97161.88
2019-01-27T03:09:53.875Z,97149.33
2019-01-27T03:14:59.555Z,97142.30
2019-01-27T03:20:06.901Z,97128.80
2019-01-27T03:25:13.043Z,97113.50
2019-01-27T03:30:18.988Z,97101.70
2019-01-27T03:35:27.105Z,97098.34
2019-01-27T03:40:32.813Z,97089.71
2019-01-27T03:45:38.407Z,97079.94
2019-01-27T03:50:43.908Z,97072.77
2019-01-27T03:55:49.486Z,97057.52
2019-01-27T04:00:57.886Z,97049.58
2019-01-27T04:06:04.597Z,97042.22
2019-01-27T04:11:10.165Z,97016.36
2019-01-27T04:16:16.140Z,97016.36
2019-01-27T04:21:21.786Z,97018.25
2019-01-27T04:26:28.436Z,97008.11
2019-01-27T04:31:35.862Z,97006.91
2019-01-27T04:36:41.391Z,96995.75
2019-01-27T04:41:46.981Z,96990.69
2019-01-27T04:46:52.572Z,96968.90
2019-01-27T04:51:58.418Z,96958.42
2019-01-27T04:57:04.065Z,96959.42
2019-01-27T05:02:09.664Z,96945.13
2019-01-27T05:07:15.495Z,96950.69
2019-01-27T05:12:21.051Z,96941.59
2019-01-27T05:17:27.832Z,96938.53
2019-01-27T05:22:33.519Z,96913.16
2019-01-27T05:27:39.160Z,96908.61
2019-01-27T05:32:46.274Z,96903.67
2019-01-27T05:37:51.980Z,96897.00
2019-01-27T05:42:57.477Z,96881.44
2019-01-27T05:48:04.066Z,96867.85
2019-01-27T05:53:09.618Z,96876.78
2019-01-27T05:58:17.796Z,96879.44
2019-01-27T06:03:23.372Z,96884.91
2019-01-27T06:08:30.199Z,96874.92
2019-01-27T06:13:35.755Z,96864.88
2019-01-27T06:18:42.156Z,96858.33
2019-01-27T06:23:47.790Z,96854.89
2019-01-27T06:28:53.766Z,96848.66
2019-01-27T06:34:19.431Z,96837.37
2019-01-27T06:39:25.282Z,96830.83
2019-01-27T06:44:30.891Z,96825.97
2019-01-27T06:49:38.771Z,96820.82
2019-01-27T06:54:44.703Z,96820.82
2019-01-27T06:59:55.168Z,96826.84
2019-01-27T07:05:25.306Z,96814.99
2019-01-27T07:10:58.732Z,96812.03
2019-01-27T07:16:22.100Z,96813.50
2019-01-27T07:21:46.656Z,96790.45
2019-01-27T07:27:13.256Z,96785.25
2019-01-27T07:32:49.882Z,96781.00
2019-01-27T07:38:13.012Z,96762.01
2019-01-27T07:43:47.037Z,96762.51
2019-01-27T07:49:10.314Z,96751.63
2019-01-27T07:54:40.766Z,96746.11
2019-01-27T08:00:07.501Z,96747.81
2019-01-27T08:05:34.963Z,96740.68
2019-01-27T08:11:04.382Z,96735.48
2019-01-27T08:16:28.153Z,96728.11
2019-01-27T08:21:57.092Z,96725.09
2019-01-27T08:27:30.265Z,96719.11
2019-01-27T08:33:09.904Z,96711.45
2019-01-27T08:38:37.406Z,96718.61
2019-01-27T08:44:13.909Z,96708.20
2019-01-27T08:49:19.541Z,96705.75
2019-01-27T08:54:25.151Z,96702.41
2019-01-27T08:59:33.058Z,96697.84
2019-01-27T09:04:52.746Z,96714.30
2019-01-27T09:10:16.010Z,96717.11
2019-01-27T09:15:46.349Z,96714.53
2019-01-27T09:21:26.399Z,96695.61
2019-01-27T09:26:51.297Z,96677.48
2019-01-27T09:32:25.085Z,96686.66
2019-01-27T09:37:55.439Z,96694.17
2019-01-27T09:43:16.618Z,96691.02
2019-01-27T09:48:56.231Z,96682.24
2019-01-27T09:54:10.821Z,96652.36
2019-01-27T09:59:24.086Z,96652.36
2019-01-27T10:04:54.563Z,96664.39
2019-01-27T10:10:25.016Z,96661.34
2019-01-27T10:15:45.070Z,96664.34
2019-01-27T10:21:08.413Z,96649.33
2019-01-27T10:26:34.131Z,96645.14
2019-01-27T10:32:17.542Z,96647.60
2019-01-27T10:37:33.425Z,96625.39
2019-01-27T10:42:59.305Z,96618.30
2019-01-27T10:48:33.695Z,96629.52
2019-01-27T10:53:51.131Z,96610.29
2019-01-27T10:59:08.649Z,96602.67
2019-01-27T11:04:32.653Z,96603.28
2019-01-27T11:10:03.134Z,96588.36
2019-01-27T11:15:33.428Z,96584.40
2019-01-27T11:21:08.176Z,96574.67
2019-01-27T11:26:44.810Z,96572.03
2019-01-27T11:32:15.301Z,96555.58
2019-01-27T11:37:35.390Z,96573.14
2019-01-27T11:43:10.648Z,96566.07
2019-01-27T11:48:41.392Z,96554.53
2019-01-27T11:53:47.300Z,96554.53
2019-01-27T11:58:52.964Z,96555.94
2019-01-27T12:03:58.831Z,96557.91
2019-01-27T12:09:08.619Z,96543.45
2019-01-27T12:14:14.466Z,96546.09
2019-01-27T12:19:23.101Z,96538.92
2019-01-27T12:24:30.757Z,96538.92
2019-01-27T12:29:37.627Z,96531.77
2019-01-27T12:34:45.319Z,96517.53
2019-01-27T12:39:54.124Z,96515.71
2019-01-27T12:45:00.238Z,96515.60
2019-01-27T12:50:08.743Z,96509.30
2019-01-27T12:55:15.221Z,96488.16
2019-01-27T13:00:32.316Z,96498.39
2019-01-27T13:05:41.201Z,96491.40
2019-01-27T13:10:47.020Z,96484.47
2019-01-27T13:15:56.885Z,96480.32
2019-01-27T13:21:02.759Z,96473.80
2019-01-27T13:26:10.634Z,96472.29
2019-01-27T13:31:19.563Z,96472.80
2019-01-27T13:36:25.609Z,96469.11
2019-01-27T13:41:31.376Z,96455.58
2019-01-27T13:46:38.199Z,96446.45
2019-01-27T13:51:44.531Z,96446.20
2019-01-27T13:56:53.070Z,96446.20
2019-01-27T14:02:00.993Z,96437.20
2019-01-27T14:07:06.857Z,96436.15
2019-01-27T14:12:16.013Z,96429.92
2019-01-27T14:17:23.475Z,96442.37
2019-01-27T14:22:31.997Z,96442.01
2019-01-27T14:27:39.686Z,96432.09
2019-01-27T14:32:49.123Z,96420.29
2019-01-27T14:37:59.591Z,96411.69
2019-01-27T14:43:06.884Z,96401.70
2019-01-27T14:48:15.578Z,96403.84
2019-01-27T14:53:21.403Z,96404.53
2019-01-27T14:58:27.273Z,96394.26
2019-01-27T15:03:33.138Z,96379.97
2019-01-27T15:08:38.935Z,96381.02
2019-01-27T15:13:49.983Z,96400.41
2019-01-27T15:18:56.776Z,96405.11
2019-01-27T15:24:06.840Z,96408.53
2019-01-27T15:29:13.120Z,96403.86
2019-01-27T15:34:20.172Z,96405.81
2019-01-27T15:39:27.534Z,96389.84
2019-01-27T15:44:35.189Z,96387.66
2019-01-27T15:49:41.805Z,96390.00
2019-01-27T15:54:48.957Z,96374.88
2019-01-27T15:59:57.763Z,96381.69
2019-01-27T16:05:08.649Z,96363.16
2019-01-27T16:10:19.355Z,96364.25
2019-01-27T16:15:28.507Z,96369.69
2019-01-27T16:20:45.122Z,96385.40
2019-01-27T16:25:51.886Z,96380.89
2019-01-27T16:31:23.773Z,96389.45
2019-01-27T16:36:31.431Z,96377.28
2019-01-27T16:41:47.892Z,96358.94
2019-01-27T16:46:57.375Z,96387.11
2019-01-27T16:52:04.744Z,96376.36
2019-01-27T16:57:10.821Z,96376.12
2019-01-27T17:02:17.009Z,96376.27
2019-01-27T17:07:26.382Z,96381.11
2019-01-27T17:12:33.989Z,96367.97
2019-01-27T17:17:40.531Z,96384.66
2019-01-27T17:22:47.960Z,96384.66
2019-01-27T17:27:54.502Z,96381.00
2019-01-27T17:33:04.121Z,96348.64
2019-01-27T17:38:12.603Z,96348.64
2019-01-27T17:43:23.124Z,96356.98
2019-01-27T17:48:29.851Z,96353.48
2019-01-27T17:54:04.063Z,96341.15
2019-01-27T17:59:29.892Z,96330.30
2019-01-27T18:04:42.448Z,96332.61
2019-01-27T18:09:57.588Z,96333.64
2019-01-27T18:15:05.801Z,96331.14
2019-01-27T18:20:16.952Z,96330.81
2019-01-27T18:25:22.788Z,96340.99
2019-01-27T18:30:28.883Z,96342.30
2019-01-27T18:35:36.286Z,96356.64
2019-01-27T18:40:48.009Z,96357.47
2019-01-27T18:45:55.619Z,96352.48
2019-01-27T18:51:10.861Z,96354.00
2019-01-27T18:56:36.335Z,96337.48
2019-01-27T19:02:17.231Z,96351.64
2019-01-27T19:07:46.952Z,96346.62
2019-01-27T19:13:29.753Z,96345.97
2019-01-27T19:18:56.233Z,96349.33
2019-01-27T19:24:33.399Z,96361.16
2019-01-27T19:30:10.498Z,96364.31
2019-01-27T19:35:47.625Z,96360.64
2019-01-27T19:41:25.357Z,96363.27
2019-01-27T19:47:04.452Z,96375.86
2019-01-27T19:52:30.230Z,96370.20
2019-01-27T19:58:08.680Z,96370.20
2019-01-27T20:03:39.932Z,96377.92
2019-01-27T20:09:21.253Z,96374.20
2019-01-27T20:14:59.005Z,96370.05
2019-01-27T20:20:33.586Z,96373.59
2019-01-27T20:25:51.094Z,96386.23
2019-01-27T20:31:22.199Z,96389.80
2019-01-27T20:36:35.778Z,96378.05
2019-01-27T20:42:06.655Z,96383.75
2019-01-27T20:47:38.034Z,96383.75
2019-01-27T20:53:07.147Z,96381.61
2019-01-27T20:58:29.866Z,96370.98
2019-01-27T21:04:04.302Z,96368.77
2019-01-27T21:09:25.065Z,96376.14
2019-01-27T21:14:58.726Z,96372.81
2019-01-27T21:20:08.948Z,96378.14
2019-01-27T21:25:15.299Z,96377.64
2019-01-27T21:30:25.184Z,96384.64
2019-01-27T21:35:32.335Z,96377.64
2019-01-27T21:40:40.620Z,96383.14
2019-01-27T21:45:46.350Z,96380.30
2019-01-27T21:50:54.527Z,96390.64
2019-01-27T21:56:01.715Z,96390.64
2019-01-27T22:01:08.710Z,96391.31
2019-01-27T22:06:14.843Z,96376.60
2019-01-27T22:11:21.256Z,96379.84
2019-01-27T22:16:27.559Z,96379.84
2019-01-27T22:21:33.298Z,96383.08
2019-01-27T22:26:39.972Z,96378.34
2019-01-27T22:31:45.645Z,96385.60
2019-01-27T22:36:51.285Z,96370.26
2019-01-27T22:41:57.565Z,96383.67
2019-01-27T22:47:04.527Z,96383.59
2019-01-27T22:52:11.452Z,96378.61
2019-01-27T22:57:19.346Z,96380.44
2019-01-27T23:02:25.050Z,96392.34
2019-01-27T23:07:32.152Z,96376.50
2019-01-27T23:12:38.508Z,96366.46
2019-01-27T23:17:44.137Z,96369.80
2019-01-27T23:22:50.021Z,96380.66
2019-01-27T23:27:55.575Z,96380.66
2019-01-27T23:33:02.162Z,96372.64
2019-01-27T23:38:07.807Z,96393.66
2019-01-27T23:43:13.404Z,96393.99
2019-01-27T23:48:18.966Z,96401.65
2019-01-27T23:53:29.238Z,96418.00
2019-01-27T23:58:34.831Z,96418.00
